MET'MAP v2.0
soon released !

Expected late october,
this new version will be
more efficient, smarter,
and hosted on a brand new
server x3 powerfull...
...and still free !


Not compatible ?
Try the mobile version !

LOG IN : | Subscribe | Disclaimer | Who is Orbifly ? |
ICAO code :

TAF - LFOF Alençon Valframbert - 05 Dec 2019 17:52 UTC
Data Sources :     NOAA   


- Airport Elevation : 479 ft
- IATA code : XAN
- No reported NOTAMs.


LFOF - Alençon Valframbert

Latest METAR recorded : 0000/00/00 E:BD TAF COR EBDT 050614Z 0507/0516 23008KT 6000 SCT018 TEMPO 0507/0510 2000 BR SCT005 PROB30 TEMPO 0507/0510 VRB03KT 0400 FZFG BKN001 BECMG 0510/0512 20013KT 9999 SCT200
NO TAF


MET'MAP, your aeronautical weather chart ! - Copyright ORBIFLY December 2007

Programming & Development : Alexandra Zaïnal
Co-Developer : Marc-Olivier Méhu
Technical & hardware support : Manuel Goepfert
Concept & Financing : Baudouin d'Aumeries